Wetterdaten: Woche 29.08.16 - 04.09.16 (KW35)
Datum Zeit Temp. A. Temp. A. max Feuchte A. Luftdruck Regen Wind Richtung Sonnenschein ET UV Solar Taupunkt Windben
29.08.2016 00:00 18,4 C 18,5 C 79 % 1015,4 hPa 0,0 mm 1,4 km/h (1 Bft) SO 0,00 h 3,277 mm 0,0 UV-I 0 W/m 14,7 C 2,5 km/h (1 Bft)
29.08.2016 01:00 16,6 C 16,6 C 86 % 1015,7 hPa 0,0 mm 0,0 km/h (0 Bft) N 0,00 h 0,000 mm 0,0 UV-I 0 W/m 14,1 C 0,0 km/h (0 Bft)
29.08.2016 02:00 18,0 C 18,0 C 80 % 1015,9 hPa 0,0 mm 2,7 km/h (1 Bft) SW 0,00 h 0,000 mm 0,0 UV-I 0 W/m 14,6 C 5,2 km/h (1 Bft)
29.08.2016 03:00 19,1 C 19,2 C 77 % 1015,5 hPa 0,0 mm 1,6 km/h (1 Bft) S 0,00 h 0,000 mm 0,0 UV-I 0 W/m 14,9 C 3,0 km/h (1 Bft)
29.08.2016 04:00 18,4 C 18,5 C 79 % 1015,7 hPa 0,0 mm 2,0 km/h (1 Bft) W 0,00 h 0,000 mm 0,0 UV-I 0 W/m 14,8 C 3,7 km/h (1 Bft)
29.08.2016 05:00 17,2 C 17,2 C 83 % 1015,4 hPa 0,8 mm 2,9 km/h (1 Bft) S 0,00 h 0,000 mm 0,0 UV-I 0 W/m 14,2 C 5,0 km/h (1 Bft)
29.08.2016 06:00 16,0 C 16,0 C 87 % 1015,2 hPa 0,0 mm 3,1 km/h (1 Bft) W 0,00 h 0,000 mm 0,0 UV-I 6 W/m 13,9 C 5,5 km/h (1 Bft)
29.08.2016 07:00 16,5 C 16,6 C 86 % 1015,6 hPa 0,0 mm 2,5 km/h (1 Bft) W 0,07 h 0,000 mm 0,0 UV-I 51 W/m 14,2 C 4,1 km/h (1 Bft)
29.08.2016 08:00 16,8 C 16,8 C 86 % 1016,0 hPa 0,0 mm 2,5 km/h (1 Bft) S 0,00 h 0,000 mm 0,5 UV-I 50 W/m 14,4 C 4,2 km/h (1 Bft)
29.08.2016 09:00 17,1 C 17,1 C 86 % 1016,5 hPa 0,0 mm 1,5 km/h (1 Bft) W-SW 0,00 h 0,000 mm 0,5 UV-I 62 W/m 14,8 C 2,7 km/h (1 Bft)
29.08.2016 10:00 17,1 C 17,2 C 88 % 1017,3 hPa 1,2 mm 1,6 km/h (1 Bft) W 0,00 h 0,000 mm 0,5 UV-I 51 W/m 15,2 C 2,9 km/h (1 Bft)
29.08.2016 11:00 16,4 C 16,4 C 93 % 1018,2 hPa 3,6 mm 3,0 km/h (1 Bft) W-SW 0,00 h 0,000 mm 0,0 UV-I 28 W/m 15,2 C 4,8 km/h (1 Bft)
29.08.2016 12:00 16,9 C 16,9 C 92 % 1018,0 hPa 0,4 mm 0,9 km/h (0 Bft) W 0,00 h 0,000 mm 1,4 UV-I 153 W/m 15,6 C 1,9 km/h (1 Bft)
29.08.2016 13:00 16,9 C 16,9 C 92 % 1018,3 hPa 0,6 mm 0,4 km/h (0 Bft) W 0,00 h 0,000 mm 0,9 UV-I 99 W/m 15,7 C 1,0 km/h (0 Bft)
29.08.2016 14:00 17,1 C 17,2 C 92 % 1018,1 hPa 0,8 mm 1,6 km/h (1 Bft) W-NW 0,05 h 0,000 mm 1,4 UV-I 167 W/m 15,8 C 2,4 km/h (1 Bft)
29.08.2016 15:00 18,4 C 18,4 C 89 % 1017,6 hPa 0,0 mm 2,2 km/h (1 Bft) W 0,18 h 0,000 mm 2,4 UV-I 294 W/m 16,6 C 3,9 km/h (1 Bft)
29.08.2016 16:00 18,8 C 18,8 C 88 % 1017,2 hPa 0,2 mm 1,3 km/h (1 Bft) W 0,00 h 0,000 mm 1,9 UV-I 202 W/m 16,8 C 2,5 km/h (1 Bft)
29.08.2016 17:00 18,6 C 18,7 C 87 % 1017,3 hPa 0,0 mm 2,1 km/h (1 Bft) W 0,00 h 0,000 mm 0,9 UV-I 112 W/m 16,4 C 3,8 km/h (1 Bft)
29.08.2016 18:00 17,7 C 17,7 C 89 % 1017,7 hPa 0,0 mm 2,3 km/h (1 Bft) S 0,00 h 0,076 mm 0,0 UV-I 31 W/m 15,9 C 3,8 km/h (1 Bft)
29.08.2016 19:00 16,9 C 16,9 C 93 % 1017,9 hPa 0,0 mm 1,0 km/h (0 Bft) S 0,00 h 0,025 mm 0,0 UV-I 9 W/m 15,7 C 1,9 km/h (1 Bft)
29.08.2016 20:00 16,2 C 16,3 C 94 % 1018,6 hPa 0,0 mm 1,3 km/h (1 Bft) S-SO 0,00 h 0,000 mm 0,0 UV-I 0 W/m 15,2 C 2,5 km/h (1 Bft)
29.08.2016 21:00 16,2 C 16,2 C 93 % 1019,4 hPa 0,0 mm 1,1 km/h (1 Bft) S 0,00 h 0,000 mm 0,0 UV-I 0 W/m 15,1 C 2,6 km/h (1 Bft)
29.08.2016 22:00 16,1 C 16,1 C 93 % 1019,8 hPa 10,8 mm 3,0 km/h (1 Bft) S 0,00 h 0,000 mm 0,0 UV-I 0 W/m 14,9 C 5,0 km/h (1 Bft)
29.08.2016 23:00 15,3 C 15,3 C 95 % 1020,4 hPa 7,2 mm 1,9 km/h (1 Bft) O-SO 0,00 h 0,000 mm 0,0 UV-I 0 W/m 14,5 C 3,1 km/h (1 Bft)
30.08.2016 00:00 15,1 C 15,2 C 96 % 1020,6 hPa 0,4 mm 0,3 km/h (0 Bft) S-SW 0,00 h 0,000 mm 0,0 UV-I 0 W/m 14,5 C 0,8 km/h (0 Bft)
30.08.2016 01:00 14,9 C 14,9 C 96 % 1020,7 hPa 0,0 mm 0,5 km/h (0 Bft) W 0,00 h 0,000 mm 0,0 UV-I 0 W/m 14,2 C 1,2 km/h (1 Bft)
30.08.2016 02:00 14,5 C 14,6 C 95 % 1020,3 hPa 0,0 mm 0,9 km/h (0 Bft) W-SW 0,00 h 0,000 mm 0,0 UV-I 0 W/m 13,8 C 2,3 km/h (1 Bft)
30.08.2016 03:00 14,3 C 14,4 C 96 % 1020,2 hPa 0,0 mm 0,3 km/h (0 Bft) W-SW 0,00 h 0,000 mm 0,0 UV-I 0 W/m 13,7 C 1,0 km/h (0 Bft)
30.08.2016 04:00 14,1 C 14,2 C 96 % 1020,3 hPa 0,0 mm 0,5 km/h (0 Bft) W-NW 0,00 h 0,000 mm 0,0 UV-I 0 W/m 13,5 C 1,1 km/h (1 Bft)
30.08.2016 05:00 13,4 C 13,4 C 96 % 1020,3 hPa 0,0 mm 0,3 km/h (0 Bft) W-NW 0,00 h 0,000 mm 0,0 UV-I 0 W/m 12,7 C 0,7 km/h (0 Bft)
30.08.2016 06:00 13,3 C 13,3 C 97 % 1020,4 hPa 0,0 mm 0,1 km/h (0 Bft) W-NW 0,00 h 0,000 mm 0,0 UV-I 9 W/m 12,7 C 0,5 km/h (0 Bft)
30.08.2016 07:00 13,9 C 13,9 C 96 % 1020,8 hPa 0,0 mm 0,1 km/h (0 Bft) W-NW 0,00 h 0,000 mm 0,0 UV-I 37 W/m 13,3 C 0,4 km/h (0 Bft)
30.08.2016 08:00 14,7 C 14,7 C 95 % 1021,3 hPa 0,0 mm 0,1 km/h (0 Bft) NW 0,00 h 0,025 mm 0,7 UV-I 89 W/m 13,8 C 0,4 km/h (0 Bft)
30.08.2016 09:00 15,6 C 15,6 C 92 % 1021,7 hPa 0,0 mm 2,5 km/h (1 Bft) NO 0,00 h 0,051 mm 1,1 UV-I 161 W/m 14,3 C 4,3 km/h (1 Bft)
30.08.2016 10:00 16,1 C 16,1 C 91 % 1021,9 hPa 0,0 mm 4,3 km/h (1 Bft) O-NO 0,13 h 0,076 mm 2,0 UV-I 273 W/m 14,6 C 6,6 km/h (2 Bft)
30.08.2016 11:00 17,3 C 17,3 C 87 % 1021,9 hPa 0,0 mm 5,4 km/h (1 Bft) O-NO 0,33 h 0,153 mm 3,2 UV-I 407 W/m 15,1 C 8,7 km/h (2 Bft)
30.08.2016 12:00 18,2 C 18,2 C 84 % 1021,7 hPa 0,0 mm 5,2 km/h (1 Bft) NO 0,32 h 0,254 mm 3,2 UV-I 373 W/m 15,5 C 8,5 km/h (2 Bft)
30.08.2016 13:00 18,3 C 18,3 C 84 % 1021,5 hPa 0,0 mm 4,2 km/h (1 Bft) NO 0,00 h 0,228 mm 2,1 UV-I 224 W/m 15,6 C 7,1 km/h (2 Bft)
30.08.2016 14:00 19,2 C 19,2 C 82 % 1021,2 hPa 0,0 mm 5,6 km/h (1 Bft) N-NO 0,33 h 0,127 mm 2,9 UV-I 371 W/m 16,0 C 9,2 km/h (2 Bft)
30.08.2016 15:00 19,1 C 19,1 C 83 % 1020,9 hPa 0,0 mm 5,0 km/h (1 Bft) NO 0,07 h 0,204 mm 1,7 UV-I 231 W/m 16,1 C 8,1 km/h (2 Bft)
30.08.2016 16:00 19,5 C 19,5 C 81 % 1020,4 hPa 0,0 mm 5,2 km/h (1 Bft) O-NO 0,00 h 0,152 mm 1,6 UV-I 201 W/m 16,2 C 8,4 km/h (2 Bft)
30.08.2016 17:00 19,7 C 19,7 C 81 % 1020,1 hPa 0,0 mm 4,6 km/h (1 Bft) O-NO 0,00 h 0,127 mm 1,1 UV-I 139 W/m 16,3 C 7,6 km/h (2 Bft)
30.08.2016 18:00 19,2 C 19,3 C 83 % 1019,8 hPa 0,0 mm 2,8 km/h (1 Bft) O-NO 0,00 h 0,102 mm 0,6 UV-I 82 W/m 16,3 C 4,8 km/h (1 Bft)
30.08.2016 19:00 18,2 C 18,2 C 85 % 1019,9 hPa 0,0 mm 1,3 km/h (1 Bft) O-NO 0,00 h 0,050 mm 0,0 UV-I 23 W/m 15,7 C 2,7 km/h (1 Bft)
30.08.2016 20:00 17,3 C 17,3 C 87 % 1020,3 hPa 0,0 mm 1,0 km/h (0 Bft) SO 0,00 h 0,026 mm 0,0 UV-I 0 W/m 15,2 C 2,0 km/h (1 Bft)
30.08.2016 21:00 16,1 C 16,1 C 90 % 1020,5 hPa 0,0 mm 0,5 km/h (0 Bft) SO 0,00 h 0,000 mm 0,0 UV-I 0 W/m 14,4 C 1,2 km/h (1 Bft)
30.08.2016 22:00 14,7 C 14,7 C 93 % 1020,6 hPa 0,0 mm 0,0 km/h (0 Bft) N 0,00 h 0,000 mm 0,0 UV-I 0 W/m 13,6 C 0,2 km/h (0 Bft)
30.08.2016 23:00 13,7 C 13,7 C 94 % 1020,5 hPa 0,0 mm 0,0 km/h (0 Bft) N 0,00 h 0,000 mm 0,0 UV-I 0 W/m 12,8 C 0,0 km/h (0 Bft)
31.08.2016 00:00 13,5 C 13,5 C 95 % 1020,1 hPa 0,0 mm 0,8 km/h (0 Bft) SO 0,00 h 0,000 mm 0,0 UV-I 0 W/m 12,7 C 1,4 km/h (1 Bft)
31.08.2016 01:00 13,7 C 13,8 C 93 % 1019,7 hPa 0,0 mm 2,5 km/h (1 Bft) S-SO 0,00 h 0,000 mm 0,0 UV-I 0 W/m 12,6 C 3,9 km/h (1 Bft)
31.08.2016 02:00 12,9 C 12,9 C 95 % 1019,3 hPa 0,0 mm 0,5 km/h (0 Bft) O-SO 0,00 h 0,000 mm 0,0 UV-I 0 W/m 12,1 C 1,3 km/h (1 Bft)
31.08.2016 03:00 12,4 C 12,4 C 95 % 1019,1 hPa 0,0 mm 0,4 km/h (0 Bft) O-SO 0,00 h 0,000 mm 0,0 UV-I 0 W/m 11,7 C 1,0 km/h (0 Bft)
31.08.2016 04:00 13,1 C 13,2 C 96 % 1019,0 hPa 0,0 mm 0,7 km/h (0 Bft) SO 0,00 h 0,000 mm 0,0 UV-I 0 W/m 12,5 C 1,5 km/h (1 Bft)
31.08.2016 05:00 12,3 C 12,4 C 96 % 1019,1 hPa 0,0 mm 1,3 km/h (1 Bft) S 0,00 h 0,000 mm 0,0 UV-I 0 W/m 11,7 C 2,6 km/h (1 Bft)
31.08.2016 06:00 11,1 C 11,2 C 96 % 1019,1 hPa 0,0 mm 0,2 km/h (0 Bft) S 0,00 h 0,000 mm 0,0 UV-I 9 W/m 10,5 C 0,5 km/h (0 Bft)
31.08.2016 07:00 11,3 C 11,3 C 96 % 1019,2 hPa 0,0 mm 0,2 km/h (0 Bft) W 0,02 h 0,000 mm 0,5 UV-I 51 W/m 10,8 C 0,5 km/h (0 Bft)
31.08.2016 08:00 12,8 C 12,8 C 97 % 1019,3 hPa 0,0 mm 1,4 km/h (1 Bft) W 0,05 h 0,025 mm 0,7 UV-I 115 W/m 12,3 C 2,4 km/h (1 Bft)
31.08.2016 09:00 13,9 C 13,9 C 97 % 1019,5 hPa 0,0 mm 0,8 km/h (0 Bft) W-NW 0,05 h 0,051 mm 1,3 UV-I 191 W/m 13,4 C 1,6 km/h (1 Bft)
31.08.2016 10:00 16,6 C 16,6 C 92 % 1019,5 hPa 0,0 mm 1,6 km/h (1 Bft) O-NO 1,00 h 0,102 mm 3,7 UV-I 552 W/m 15,3 C 2,6 km/h (1 Bft)
31.08.2016 11:00 20,2 C 20,3 C 82 % 1019,5 hPa 0,0 mm 3,1 km/h (1 Bft) W-NW 1,00 h 0,305 mm 4,9 UV-I 678 W/m 17,1 C 5,1 km/h (1 Bft)
31.08.2016 12:00 21,9 C 22,0 C 74 % 1019,5 hPa 0,0 mm 4,8 km/h (1 Bft) N 1,00 h 0,406 mm 5,7 UV-I 741 W/m 17,2 C 7,3 km/h (2 Bft)
31.08.2016 13:00 22,7 C 22,7 C 72 % 1019,3 hPa 0,0 mm 3,9 km/h (1 Bft) N-NO 1,00 h 0,457 mm 5,8 UV-I 757 W/m 17,3 C 6,5 km/h (2 Bft)
31.08.2016 14:00 22,8 C 22,9 C 75 % 1018,9 hPa 0,0 mm 5,8 km/h (2 Bft) O-NO 1,00 h 0,457 mm 5,2 UV-I 749 W/m 18,1 C 9,4 km/h (2 Bft)
31.08.2016 15:00 22,9 C 22,9 C 75 % 1018,5 hPa 0,0 mm 5,4 km/h (1 Bft) O-NO 0,80 h 0,458 mm 3,8 UV-I 550 W/m 18,2 C 8,4 km/h (2 Bft)
31.08.2016 16:00 22,5 C 22,5 C 76 % 1018,3 hPa 0,0 mm 4,3 km/h (1 Bft) NO 0,23 h 0,355 mm 2,0 UV-I 205 W/m 18,0 C 6,6 km/h (2 Bft)
31.08.2016 17:00 21,4 C 21,4 C 81 % 1018,3 hPa 0,0 mm 1,4 km/h (1 Bft) NO 0,00 h 0,127 mm 1,1 UV-I 65 W/m 18,0 C 2,9 km/h (1 Bft)
31.08.2016 18:00 20,7 C 20,7 C 84 % 1018,2 hPa 0,0 mm 0,5 km/h (0 Bft) NO 0,00 h 0,051 mm 0,7 UV-I 54 W/m 17,9 C 1,5 km/h (1 Bft)
31.08.2016 19:00 19,3 C 19,3 C 87 % 1018,2 hPa 0,0 mm 1,2 km/h (1 Bft) O-NO 0,02 h 0,025 mm 0,0 UV-I 18 W/m 17,1 C 1,9 km/h (1 Bft)
31.08.2016 20:00 17,5 C 17,5 C 92 % 1018,8 hPa 0,0 mm 0,0 km/h (0 Bft) N 0,00 h 0,026 mm 0,0 UV-I 0 W/m 16,1 C 0,0 km/h (0 Bft)
31.08.2016 21:00 17,6 C 17,6 C 92 % 1019,2 hPa 0,0 mm 1,3 km/h (1 Bft) S 0,00 h 0,000 mm 0,0 UV-I 0 W/m 16,2 C 2,5 km/h (1 Bft)
31.08.2016 22:00 17,6 C 17,7 C 89 % 1019,3 hPa 0,0 mm 4,3 km/h (1 Bft) S 0,00 h 0,000 mm 0,0 UV-I 0 W/m 15,9 C 6,9 km/h (2 Bft)
31.08.2016 23:00 17,1 C 17,1 C 90 % 1019,6 hPa 0,0 mm 4,4 km/h (1 Bft) S 0,00 h 0,025 mm 0,0 UV-I 0 W/m 15,4 C 6,7 km/h (2 Bft)
01.09.2016 00:00 16,8 C 16,8 C 91 % 1019,8 hPa 0,0 mm 2,2 km/h (1 Bft) S 0,00 h 0,000 mm 0,0 UV-I 0 W/m 15,2 C 3,9 km/h (1 Bft)
01.09.2016 01:00 15,3 C 15,4 C 93 % 1019,9 hPa 0,0 mm 0,2 km/h (0 Bft) S-SW 0,00 h 0,000 mm 0,0 UV-I 0 W/m 14,3 C 0,7 km/h (0 Bft)
01.09.2016 02:00 14,7 C 14,8 C 95 % 1019,9 hPa 0,0 mm 0,6 km/h (0 Bft) O-SO 0,00 h 0,000 mm 0,0 UV-I 0 W/m 14,0 C 1,5 km/h (1 Bft)
01.09.2016 03:00 15,2 C 15,2 C 94 % 1019,8 hPa 0,0 mm 0,5 km/h (0 Bft) W 0,00 h 0,000 mm 0,0 UV-I 0 W/m 14,2 C 1,3 km/h (1 Bft)
01.09.2016 04:00 14,9 C 14,9 C 94 % 1019,7 hPa 0,0 mm 0,0 km/h (0 Bft) N 0,00 h 0,000 mm 0,0 UV-I 0 W/m 13,8 C 0,0 km/h (0 Bft)
01.09.2016 05:00 15,0 C 15,0 C 93 % 1019,7 hPa 0,0 mm 1,3 km/h (1 Bft) S 0,00 h 0,000 mm 0,0 UV-I 0 W/m 13,9 C 2,3 km/h (1 Bft)
01.09.2016 06:00 15,6 C 15,6 C 92 % 1020,0 hPa 0,0 mm 1,2 km/h (1 Bft) S 0,00 h 0,000 mm 0,0 UV-I 6 W/m 14,3 C 2,2 km/h (1 Bft)
01.09.2016 07:00 15,7 C 15,7 C 93 % 1020,3 hPa 0,4 mm 1,8 km/h (1 Bft) S 0,00 h 0,000 mm 0,0 UV-I 13 W/m 14,5 C 3,3 km/h (1 Bft)
01.09.2016 08:00 15,9 C 15,9 C 92 % 1020,8 hPa 5,0 mm 3,5 km/h (1 Bft) W-SW 0,00 h 0,000 mm 0,0 UV-I 26 W/m 14,7 C 6,0 km/h (2 Bft)
01.09.2016 09:00 16,0 C 16,0 C 94 % 1021,3 hPa 0,6 mm 1,7 km/h (1 Bft) S-SW 0,00 h 0,025 mm 0,7 UV-I 57 W/m 15,0 C 3,2 km/h (1 Bft)
01.09.2016 10:00 16,5 C 16,5 C 95 % 1021,6 hPa 0,0 mm 0,7 km/h (0 Bft) W 0,00 h 0,026 mm 0,9 UV-I 108 W/m 15,7 C 2,1 km/h (1 Bft)
01.09.2016 11:00 17,8 C 17,8 C 92 % 1021,7 hPa 0,0 mm 1,0 km/h (0 Bft) W 0,07 h 0,051 mm 2,1 UV-I 240 W/m 16,4 C 2,2 km/h (1 Bft)
01.09.2016 12:00 19,1 C 19,1 C 88 % 1021,6 hPa 0,0 mm 1,2 km/h (1 Bft) W-SW 0,00 h 0,127 mm 2,3 UV-I 251 W/m 17,0 C 2,2 km/h (1 Bft)
01.09.2016 13:00 19,8 C 19,8 C 84 % 1021,4 hPa 0,0 mm 3,9 km/h (1 Bft) W-SW 0,33 h 0,152 mm 3,5 UV-I 390 W/m 16,9 C 5,9 km/h (2 Bft)
01.09.2016 14:00 21,2 C 21,2 C 74 % 1020,9 hPa 0,0 mm 3,8 km/h (1 Bft) W 0,97 h 0,229 mm 4,9 UV-I 661 W/m 16,4 C 6,2 km/h (2 Bft)
01.09.2016 15:00 21,8 C 21,8 C 66 % 1020,5 hPa 0,0 mm 3,6 km/h (1 Bft) W-NW 0,90 h 0,381 mm 4,0 UV-I 585 W/m 15,1 C 5,9 km/h (2 Bft)
01.09.2016 16:00 21,7 C 21,7 C 64 % 1020,3 hPa 0,0 mm 2,0 km/h (1 Bft) SO 0,32 h 0,381 mm 2,2 UV-I 209 W/m 14,6 C 3,5 km/h (1 Bft)
01.09.2016 17:00 21,9 C 22,0 C 65 % 1020,1 hPa 0,0 mm 4,7 km/h (1 Bft) W-NW 0,00 h 0,127 mm 1,3 UV-I 87 W/m 14,9 C 7,4 km/h (2 Bft)
01.09.2016 18:00 20,5 C 20,6 C 76 % 1020,2 hPa 0,0 mm 3,4 km/h (1 Bft) NO 0,00 h 0,076 mm 0,7 UV-I 81 W/m 16,2 C 5,6 km/h (1 Bft)
01.09.2016 19:00 18,1 C 18,2 C 84 % 1020,3 hPa 0,0 mm 2,4 km/h (1 Bft) O 0,00 h 0,051 mm 0,0 UV-I 23 W/m 15,4 C 4,1 km/h (1 Bft)
01.09.2016 20:00 16,6 C 16,6 C 89 % 1020,8 hPa 0,0 mm 1,2 km/h (1 Bft) S-SO 0,00 h 0,025 mm 0,0 UV-I 0 W/m 14,8 C 2,2 km/h (1 Bft)
01.09.2016 21:00 15,9 C 15,9 C 91 % 1021,1 hPa 0,0 mm 0,2 km/h (0 Bft) S-SO 0,00 h 0,000 mm 0,0 UV-I 0 W/m 14,5 C 0,6 km/h (0 Bft)
01.09.2016 22:00 15,6 C 15,7 C 92 % 1021,1 hPa 0,0 mm 0,2 km/h (0 Bft) S 0,00 h 0,000 mm 0,0 UV-I 0 W/m 14,3 C 0,6 km/h (0 Bft)
01.09.2016 23:00 15,1 C 15,2 C 93 % 1021,1 hPa 0,0 mm 0,0 km/h (0 Bft) N 0,00 h 0,000 mm 0,0 UV-I 0 W/m 14,0 C 0,0 km/h (0 Bft)
02.09.2016 00:00 14,5 C 14,5 C 94 % 1020,9 hPa 0,0 mm 0,0 km/h (0 Bft) N 0,00 h 0,000 mm 0,0 UV-I 0 W/m 13,5 C 0,0 km/h (0 Bft)
02.09.2016 01:00 14,5 C 14,5 C 94 % 1020,9 hPa 0,0 mm 0,0 km/h (0 Bft) W-NW 0,00 h 0,000 mm 0,0 UV-I 0 W/m 13,5 C 0,1 km/h (0 Bft)
02.09.2016 02:00 14,0 C 14,0 C 94 % 1020,9 hPa 0,0 mm 0,9 km/h (0 Bft) S-SW 0,00 h 0,000 mm 0,0 UV-I 0 W/m 13,0 C 1,5 km/h (1 Bft)
02.09.2016 03:00 13,6 C 13,6 C 94 % 1020,5 hPa 0,0 mm 0,3 km/h (0 Bft) W 0,00 h 0,000 mm 0,0 UV-I 0 W/m 12,7 C 0,5 km/h (0 Bft)
02.09.2016 04:00 12,8 C 12,9 C 96 % 1020,5 hPa 0,0 mm 0,1 km/h (0 Bft) W 0,00 h 0,000 mm 0,0 UV-I 0 W/m 12,2 C 0,4 km/h (0 Bft)
02.09.2016 05:00 13,0 C 13,1 C 95 % 1020,5 hPa 0,0 mm 0,5 km/h (0 Bft) S-SW 0,00 h 0,000 mm 0,0 UV-I 0 W/m 12,3 C 1,0 km/h (0 Bft)
02.09.2016 06:00 12,6 C 12,6 C 95 % 1020,6 hPa 0,0 mm 0,4 km/h (0 Bft) S 0,00 h 0,000 mm 0,0 UV-I 9 W/m 11,9 C 0,8 km/h (0 Bft)
02.09.2016 07:00 12,7 C 12,7 C 96 % 1020,6 hPa 0,0 mm 0,0 km/h (0 Bft) N 0,00 h 0,000 mm 0,6 UV-I 36 W/m 12,0 C 0,3 km/h (0 Bft)
02.09.2016 08:00 15,2 C 15,2 C 93 % 1020,7 hPa 0,0 mm 0,0 km/h (0 Bft) N 0,93 h 0,025 mm 1,0 UV-I 216 W/m 14,0 C 0,0 km/h (0 Bft)
02.09.2016 09:00 17,9 C 17,9 C 85 % 1020,7 hPa 0,0 mm 0,0 km/h (0 Bft) N 0,98 h 0,102 mm 2,2 UV-I 383 W/m 15,4 C 0,0 km/h (0 Bft)
02.09.2016 10:00 19,6 C 19,6 C 78 % 1020,5 hPa 0,0 mm 1,2 km/h (1 Bft) NO 0,90 h 0,203 mm 3,4 UV-I 494 W/m 15,7 C 2,4 km/h (1 Bft)
02.09.2016 11:00 20,8 C 20,8 C 76 % 1020,3 hPa 0,0 mm 3,4 km/h (1 Bft) N-NO 0,75 h 0,280 mm 3,9 UV-I 525 W/m 16,3 C 5,7 km/h (1 Bft)
02.09.2016 12:00 20,9 C 21,0 C 74 % 1020,0 hPa 0,0 mm 3,9 km/h (1 Bft) NW 0,43 h 0,330 mm 3,8 UV-I 452 W/m 16,1 C 6,2 km/h (2 Bft)
02.09.2016 13:00 21,5 C 21,6 C 67 % 1019,7 hPa 0,0 mm 4,2 km/h (1 Bft) NO 0,57 h 0,279 mm 4,2 UV-I 501 W/m 15,2 C 6,8 km/h (2 Bft)
02.09.2016 14:00 22,0 C 22,1 C 66 % 1019,2 hPa 0,0 mm 4,7 km/h (1 Bft) NO 0,80 h 0,305 mm 4,6 UV-I 637 W/m 15,3 C 7,7 km/h (2 Bft)
02.09.2016 15:00 22,0 C 22,1 C 66 % 1018,9 hPa 0,0 mm 3,1 km/h (1 Bft) O 0,58 h 0,381 mm 3,3 UV-I 451 W/m 15,4 C 5,3 km/h (1 Bft)
02.09.2016 16:00 21,4 C 21,5 C 70 % 1018,6 hPa 0,0 mm 1,6 km/h (1 Bft) O 0,20 h 0,279 mm 1,9 UV-I 216 W/m 15,6 C 3,0 km/h (1 Bft)
02.09.2016 17:00 21,5 C 21,5 C 70 % 1018,2 hPa 0,0 mm 1,6 km/h (1 Bft) O-SO 0,00 h 0,127 mm 1,2 UV-I 96 W/m 15,8 C 3,1 km/h (1 Bft)
02.09.2016 18:00 20,6 C 20,7 C 75 % 1018,1 hPa 0,0 mm 1,4 km/h (1 Bft) SO 0,00 h 0,077 mm 0,7 UV-I 80 W/m 15,9 C 2,6 km/h (1 Bft)
02.09.2016 19:00 18,7 C 18,8 C 82 % 1018,2 hPa 0,0 mm 1,4 km/h (1 Bft) SO 0,00 h 0,050 mm 0,0 UV-I 23 W/m 15,5 C 2,3 km/h (1 Bft)
02.09.2016 20:00 16,2 C 16,2 C 89 % 1018,7 hPa 0,0 mm 1,0 km/h (0 Bft) SO 0,00 h 0,026 mm 0,0 UV-I 0 W/m 14,5 C 1,5 km/h (1 Bft)
02.09.2016 21:00 15,5 C 15,5 C 90 % 1018,9 hPa 0,0 mm 0,0 km/h (0 Bft) N 0,00 h 0,000 mm 0,0 UV-I 0 W/m 13,9 C 0,1 km/h (0 Bft)
02.09.2016 22:00 15,2 C 15,2 C 92 % 1019,2 hPa 0,0 mm 0,5 km/h (0 Bft) S 0,00 h 0,000 mm 0,0 UV-I 0 W/m 13,8 C 1,2 km/h (1 Bft)
02.09.2016 23:00 15,1 C 15,2 C 91 % 1019,3 hPa 0,0 mm 0,6 km/h (0 Bft) S 0,00 h 0,000 mm 0,0 UV-I 0 W/m 13,6 C 1,7 km/h (1 Bft)
03.09.2016 00:00 14,0 C 14,1 C 92 % 1019,5 hPa 0,0 mm 0,3 km/h (0 Bft) S-SW 0,00 h 0,000 mm 0,0 UV-I 0 W/m 12,8 C 0,9 km/h (0 Bft)
03.09.2016 01:00 13,4 C 13,5 C 93 % 1019,4 hPa 0,0 mm 0,1 km/h (0 Bft) W-SW 0,00 h 0,000 mm 0,0 UV-I 0 W/m 12,4 C 0,3 km/h (0 Bft)
03.09.2016 02:00 12,9 C 12,9 C 94 % 1019,1 hPa 0,0 mm 0,0 km/h (0 Bft) N 0,00 h 0,000 mm 0,0 UV-I 0 W/m 11,9 C 0,0 km/h (0 Bft)
03.09.2016 03:00 12,7 C 12,7 C 94 % 1019,1 hPa 0,0 mm 0,0 km/h (0 Bft) N 0,00 h 0,000 mm 0,0 UV-I 0 W/m 11,7 C 0,0 km/h (0 Bft)
03.09.2016 04:00 12,9 C 12,9 C 91 % 1018,9 hPa 0,0 mm 0,2 km/h (0 Bft) W-NW 0,00 h 0,000 mm 0,0 UV-I 0 W/m 11,5 C 0,9 km/h (0 Bft)
03.09.2016 05:00 12,9 C 13,0 C 89 % 1018,7 hPa 0,0 mm 0,1 km/h (0 Bft) W-NW 0,00 h 0,000 mm 0,0 UV-I 0 W/m 11,2 C 0,1 km/h (0 Bft)
03.09.2016 06:00 13,3 C 13,4 C 88 % 1018,6 hPa 0,0 mm 0,0 km/h (0 Bft) N 0,00 h 0,000 mm 0,0 UV-I 8 W/m 11,4 C 0,0 km/h (0 Bft)
03.09.2016 07:00 13,0 C 13,0 C 90 % 1018,7 hPa 0,0 mm 0,0 km/h (0 Bft) N 0,00 h 0,000 mm 0,5 UV-I 44 W/m 11,4 C 0,0 km/h (0 Bft)
03.09.2016 08:00 14,6 C 14,6 C 89 % 1019,1 hPa 0,0 mm 0,0 km/h (0 Bft) N 0,72 h 0,025 mm 0,9 UV-I 191 W/m 12,8 C 0,0 km/h (0 Bft)
03.09.2016 09:00 17,4 C 17,4 C 83 % 1019,3 hPa 0,0 mm 0,0 km/h (0 Bft) N 1,00 h 0,102 mm 2,1 UV-I 369 W/m 14,5 C 0,0 km/h (0 Bft)
03.09.2016 10:00 20,5 C 20,6 C 70 % 1019,5 hPa 0,0 mm 4,4 km/h (1 Bft) W-NW 1,00 h 0,203 mm 3,6 UV-I 554 W/m 14,7 C 7,4 km/h (2 Bft)
03.09.2016 11:00 21,0 C 21,1 C 67 % 1019,5 hPa 0,0 mm 5,8 km/h (2 Bft) NW 0,42 h 0,330 mm 3,6 UV-I 420 W/m 14,6 C 9,2 km/h (2 Bft)
03.09.2016 12:00 21,8 C 21,8 C 68 % 1019,0 hPa 0,0 mm 5,7 km/h (1 Bft) NW 0,65 h 0,280 mm 3,9 UV-I 439 W/m 15,6 C 9,1 km/h (2 Bft)
03.09.2016 13:00 22,1 C 22,1 C 65 % 1018,8 hPa 0,0 mm 6,5 km/h (2 Bft) NW 0,65 h 0,279 mm 4,2 UV-I 523 W/m 15,2 C 10,5 km/h (2 Bft)
03.09.2016 14:00 20,8 C 20,8 C 71 % 1018,6 hPa 0,0 mm 3,3 km/h (1 Bft) N 0,05 h 0,356 mm 2,5 UV-I 263 W/m 15,3 C 5,3 km/h (1 Bft)
03.09.2016 15:00 20,7 C 20,8 C 72 % 1018,3 hPa 0,0 mm 2,0 km/h (1 Bft) N 0,00 h 0,178 mm 2,0 UV-I 219 W/m 15,5 C 3,3 km/h (1 Bft)
03.09.2016 16:00 20,4 C 20,4 C 76 % 1017,9 hPa 0,0 mm 1,0 km/h (0 Bft) N 0,00 h 0,127 mm 1,2 UV-I 146 W/m 15,9 C 2,1 km/h (1 Bft)
03.09.2016 17:00 19,9 C 19,9 C 79 % 1017,6 hPa 0,0 mm 0,6 km/h (0 Bft) NO 0,00 h 0,101 mm 0,9 UV-I 106 W/m 16,1 C 1,7 km/h (1 Bft)
03.09.2016 18:00 19,3 C 19,3 C 83 % 1017,4 hPa 0,0 mm 0,5 km/h (0 Bft) NO 0,00 h 0,076 mm 0,6 UV-I 60 W/m 16,3 C 1,2 km/h (1 Bft)
03.09.2016 19:00 18,0 C 18,1 C 87 % 1017,3 hPa 0,0 mm 0,2 km/h (0 Bft) NO 0,00 h 0,026 mm 0,0 UV-I 12 W/m 15,9 C 0,5 km/h (0 Bft)
03.09.2016 20:00 17,2 C 17,3 C 88 % 1017,5 hPa 0,0 mm 0,6 km/h (0 Bft) O 0,00 h 0,000 mm 0,0 UV-I 0 W/m 15,3 C 1,3 km/h (1 Bft)
03.09.2016 21:00 16,2 C 16,2 C 90 % 1017,7 hPa 0,0 mm 0,0 km/h (0 Bft) N 0,00 h 0,000 mm 0,0 UV-I 0 W/m 14,5 C 0,1 km/h (0 Bft)
03.09.2016 22:00 15,6 C 15,6 C 89 % 1017,6 hPa 0,0 mm 0,2 km/h (0 Bft) N 0,00 h 0,000 mm 0,0 UV-I 0 W/m 13,8 C 0,7 km/h (0 Bft)
03.09.2016 23:00 14,8 C 14,9 C 90 % 1017,7 hPa 0,0 mm 0,2 km/h (0 Bft) S 0,00 h 0,000 mm 0,0 UV-I 0 W/m 13,2 C 0,5 km/h (0 Bft)
04.09.2016 00:00 14,8 C 14,8 C 91 % 1017,4 hPa 0,0 mm 0,4 km/h (0 Bft) NW 0,00 h 0,000 mm 0,0 UV-I 0 W/m 13,4 C 1,3 km/h (1 Bft)
04.09.2016 01:00 13,9 C 14,0 C 92 % 1017,1 hPa 0,0 mm 0,5 km/h (0 Bft) NW 0,00 h 0,000 mm 0,0 UV-I 0 W/m 12,7 C 1,4 km/h (1 Bft)
04.09.2016 02:00 13,0 C 13,1 C 93 % 1016,9 hPa 0,0 mm 0,3 km/h (0 Bft) W-NW 0,00 h 0,000 mm 0,0 UV-I 0 W/m 12,0 C 0,9 km/h (0 Bft)
04.09.2016 03:00 12,3 C 12,4 C 95 % 1016,6 hPa 0,0 mm 0,1 km/h (0 Bft) N 0,00 h 0,000 mm 0,0 UV-I 0 W/m 11,5 C 0,5 km/h (0 Bft)
04.09.2016 04:00 11,9 C 11,9 C 93 % 1016,4 hPa 0,0 mm 0,3 km/h (0 Bft) W-NW 0,00 h 0,000 mm 0,0 UV-I 0 W/m 10,8 C 0,7 km/h (0 Bft)
04.09.2016 05:00 11,8 C 11,8 C 90 % 1016,4 hPa 0,0 mm 0,4 km/h (0 Bft) W-NW 0,00 h 0,000 mm 0,0 UV-I 0 W/m 10,2 C 1,5 km/h (1 Bft)
04.09.2016 06:00 12,0 C 12,0 C 89 % 1016,4 hPa 0,0 mm 1,0 km/h (0 Bft) W 0,00 h 0,000 mm 0,0 UV-I 8 W/m 10,2 C 2,3 km/h (1 Bft)
04.09.2016 07:00 12,8 C 12,8 C 87 % 1016,5 hPa 0,0 mm 0,5 km/h (0 Bft) N-NW 0,00 h 0,000 mm 0,0 UV-I 28 W/m 10,7 C 1,7 km/h (1 Bft)
04.09.2016 08:00 15,7 C 15,7 C 83 % 1016,2 hPa 0,0 mm 0,3 km/h (0 Bft) N-NW 0,87 h 0,025 mm 1,1 UV-I 236 W/m 12,8 C 1,3 km/h (1 Bft)
04.09.2016 09:00 18,8 C 18,8 C 75 % 1015,6 hPa 0,0 mm 0,5 km/h (0 Bft) N 1,00 h 0,127 mm 2,3 UV-I 405 W/m 14,2 C 1,1 km/h (0 Bft)
04.09.2016 10:00 20,9 C 20,9 C 72 % 1015,5 hPa 0,0 mm 1,0 km/h (0 Bft) N-NO 0,55 h 0,229 mm 2,7 UV-I 362 W/m 15,7 C 2,3 km/h (1 Bft)
04.09.2016 11:00 22,3 C 22,3 C 66 % 1015,5 hPa 0,0 mm 6,2 km/h (2 Bft) W 0,65 h 0,203 mm 3,8 UV-I 484 W/m 15,5 C 10,0 km/h (2 Bft)
04.09.2016 12:00 22,5 C 22,6 C 57 % 1015,5 hPa 0,0 mm 11,2 km/h (2 Bft) W 0,25 h 0,330 mm 3,6 UV-I 388 W/m 13,7 C 18,0 km/h (3 Bft)
04.09.2016 13:00 21,6 C 21,6 C 60 % 1015,2 hPa 0,0 mm 8,5 km/h (2 Bft) W 0,00 h 0,305 mm 2,3 UV-I 245 W/m 13,5 C 13,4 km/h (3 Bft)
04.09.2016 14:00 21,2 C 21,2 C 63 % 1015,1 hPa 0,0 mm 4,9 km/h (1 Bft) W 0,00 h 0,203 mm 1,9 UV-I 215 W/m 13,8 C 9,0 km/h (2 Bft)
04.09.2016 15:00 21,1 C 21,1 C 64 % 1014,4 hPa 0,0 mm 1,7 km/h (1 Bft) W-SW 0,00 h 0,153 mm 1,7 UV-I 203 W/m 14,1 C 3,6 km/h (1 Bft)
04.09.2016 16:00 20,9 C 21,0 C 65 % 1013,8 hPa 0,0 mm 1,2 km/h (1 Bft) S-SW 0,00 h 0,127 mm 1,4 UV-I 178 W/m 14,0 C 2,8 km/h (1 Bft)
04.09.2016 17:00 20,6 C 20,6 C 65 % 1014,0 hPa 0,0 mm 5,4 km/h (1 Bft) W-SW 0,00 h 0,127 mm 0,8 UV-I 87 W/m 13,8 C 8,9 km/h (2 Bft)
04.09.2016 18:00 18,3 C 18,3 C 74 % 1015,2 hPa 0,6 mm 13,6 km/h (3 Bft) W 0,00 h 0,076 mm 0,0 UV-I 25 W/m 13,5 C 21,6 km/h (4 Bft)
04.09.2016 19:00 15,3 C 15,4 C 89 % 1015,5 hPa 1,2 mm 6,8 km/h (2 Bft) W-SW 0,00 h 0,076 mm 0,0 UV-I 10 W/m 13,5 C 11,7 km/h (2 Bft)
04.09.2016 20:00 14,9 C 14,9 C 89 % 1015,8 hPa 0,8 mm 7,3 km/h (2 Bft) SW 0,00 h 0,026 mm 0,0 UV-I 0 W/m 13,1 C 12,2 km/h (2 Bft)
04.09.2016 21:00 14,5 C 14,5 C 89 % 1015,5 hPa 0,2 mm 4,9 km/h (1 Bft) W 0,00 h 0,025 mm 0,0 UV-I 0 W/m 12,6 C 8,1 km/h (2 Bft)
04.09.2016 22:00 14,6 C 14,6 C 88 % 1015,9 hPa 0,2 mm 7,4 km/h (2 Bft) W 0,00 h 0,025 mm 0,0 UV-I 0 W/m 12,7 C 11,9 km/h (2 Bft)
04.09.2016 23:00 13,9 C 13,9 C 92 % 1015,9 hPa 0,8 mm 9,3 km/h (2 Bft) W 0,00 h 0,026 mm 0,0 UV-I 0 W/m 12,6 C 15,4 km/h (3 Bft)
Min-Datum _ 31.08.16 31.08.16 04.09.16 04.09.16 - 04.09.16 - - - - - 04.09.16 04.09.16
_ Min-Zeit 06:50 07:01 12:25 17:00 - 17:19 - - - - - 06:02 17:19
Minimum _ 10,6 C 10,7 C 52 % 1013,7 hPa - 0,0 km/h (0 Bft) - - - - - 9,7 C 0,0 km/h (0 Bft)
Max-Datum _ 31.08.16 31.08.16 31.08.16 30.08.16 29.08.16 04.09.16 - 31.08.16 29.08.16 04.09.16 30.08.16 31.08.16 04.09.16
_ Max-Zeit 14:01 14:01 10:00 11:04 22:47 17:55 - 11:44 00:03 12:14 12:00 14:56 18:06
Maximum _ 23,4 C 23,4 C 97 % 1022,1 hPa 10,8 mm 21,9 km/h
W-SW (4 Bft)
- 0,03 h 3,277 mm 6,2 UV-I 953 W/m 19,2 C 37,0 km/h
W-SW (5 Bft)
Durchschnitt _ 16,9 C 17,0 C 86 % 1018,8 hPa #35,8 mm 2,0 km/h (1 Bft) W #24:11 h #16,104 mm 2,2 UV-I 129 W/m 14,4 C 3,5 km/h (1 Bft)